Latest Weather Observations for Lucas Heights

IDN60801

Issued at 12:03 pm EDT Sunday 18 February 2018 (issued every 30 minutes, with the page automatically refreshed every 10 minutes)

About weather observations | Map of weather stations | Latest weather observations for NSW | Other Formats
Station Details ID: 066023 Name: LUCAS HEIGHTS AWS Lat: -34.05 Lon: 150.98 Height: 140.0 m
Data from the previous 72 hours. | See also: Recent months for locations in New South Wales
Date/Time
EDT
Temp
°C
App
Temp
°C
Dew
Point
°C
Rel
Hum
%
Delta-T
°C
Wind Press
QNH
hPa
Press
MSL
hPa
Rain since
9am
mm
Dir  Spd
km/h
Gust
km/h
Spd
kts
Gust
kts
18/11:45am 27.4 29.0 19.1 60 5.4 NNE 9 19 5 10 1012.0 - 0.0
18/11:30am 27.0 28.6 19.1 62 5.1 NNE 9 17 5 9 1012.3 - 0.0
18/11:15am 26.3 27.6 19.4 66 4.5 NNE 11 24 6 13 1012.5 - 0.0
18/11:00am 25.3 26.5 19.1 68 4.0 - 11 19 6 10 1012.7 - 0.0
18/10:45am 25.1 26.0 19.2 70 3.8 N 13 22 7 12 1012.7 - 0.0
18/10:30am 24.9 25.8 19.3 71 3.6 N 13 22 7 12 1012.8 - 0.0
18/10:15am 24.5 25.8 19.3 73 3.3 N 11 22 6 12 1012.9 - 0.0
18/10:00am 24.2 25.6 19.5 75 3.0 N 11 20 6 11 1012.9 - 0.0
18/09:45am 23.5 24.9 19.5 78 2.6 N 11 19 6 10 1013.0 - 0.0
18/09:30am 23.2 24.5 19.3 79 2.5 - 11 19 6 10 1013.0 - 0.0
18/09:15am 23.2 24.8 19.2 78 2.6 - 9 17 5 9 1012.9 - 0.0
18/09:00am 23.3 25.3 19.1 77 2.7 N 7 13 4 7 1012.9 - 0.0
18/08:45am 23.5 25.8 19.5 78 2.6 NE 6 11 3 6 1012.8 - 0.0
18/08:30am 22.7 25.5 19.7 83 1.9 NNE 4 7 2 4 1012.7 - 0.0
18/08:15am 21.7 24.4 19.5 87 1.4 ENE 4 6 2 3 1012.6 - 0.0
18/08:00am 20.7 23.5 18.9 89 1.1 ENE 2 4 1 2 1012.6 - 0.0
18/07:45am 19.8 22.3 18.2 90 1.0 NE 2 4 1 2 1012.5 - 0.0
18/07:30am 19.2 21.8 17.6 90 1.0 CALM 0 4 0 2 1012.4 - 0.0
18/07:15am 18.7 21.1 17.0 90 1.0 CALM 0 2 0 1 1012.3 - 0.0
18/07:00am 18.8 21.2 17.0 89 1.1 CALM 0 2 0 1 1012.1 - 0.0
18/06:45am 19.0 21.1 17.2 89 1.1 N 2 4 1 2 1012.0 - 0.0
18/06:30am 19.1 21.2 17.3 89 1.1 - 2 4 1 2 1012.0 - 0.0
18/06:15am 19.1 20.9 17.3 89 1.1 NNE 4 6 2 3 1011.8 - 0.0
18/06:00am 19.2 20.5 17.2 88 1.2 NNE 6 6 3 3 1011.7 - 0.0
18/05:45am 19.4 21.2 17.4 88 1.2 NNE 4 6 2 3 1011.7 - 0.0
18/05:30am 19.8 21.7 17.7 88 1.3 N 4 6 2 3 1011.8 - 0.0
18/05:15am 19.8 21.3 17.6 87 1.4 NNW 6 6 3 3 1011.6 - 0.0
18/05:00am 19.9 21.2 17.5 86 1.5 N 7 11 4 6 1011.5 - 0.0
18/04:45am 20.0 20.9 17.5 85 1.5 N 9 13 5 7 1011.5 - 0.0
18/04:30am 20.2 20.8 17.6 85 1.6 N 11 15 6 8 1011.3 - 0.0
18/04:15am 20.6 20.9 17.9 84 1.7 NNE 13 13 7 7 1011.4 - 0.0
18/04:00am 20.7 21.0 18.0 84 1.7 NNE 13 13 7 7 1011.5 - 0.0
18/03:45am 20.8 21.1 18.0 84 1.7 NNE 13 13 7 7 1011.7 - 0.0
18/03:30am 20.7 21.7 17.8 83 1.8 NNE 9 11 5 6 1012.0 - 0.0
18/03:15am 20.8 22.2 17.7 82 1.9 NNE 7 9 4 5 1012.2 - 0.0
18/03:00am 21.0 22.4 17.9 82 1.9 NNE 7 11 4 6 1012.1 - 0.0
18/02:45am 21.1 22.2 17.9 82 2.0 NNE 9 13 5 7 1012.0 - 0.0
18/02:30am 21.2 22.6 17.7 80 2.2 N 7 11 4 6 1012.1 - 0.0
18/02:15am 21.4 22.4 17.7 79 2.3 N 9 11 5 6 1012.2 - 0.0
18/02:00am 21.8 22.8 17.8 78 2.5 N 9 13 5 7 1012.5 - 0.0
18/01:45am 22.0 23.1 18.0 78 2.5 N 9 17 5 9 1012.7 - 0.0
18/01:30am 22.1 22.8 17.9 77 2.6 N 11 17 6 9 1012.7 - 0.0
18/01:15am 22.3 22.9 17.7 75 2.9 - 11 19 6 10 1012.9 - 0.0
18/01:00am 22.7 23.9 18.2 76 2.8 - 9 17 5 9 1013.1 - 0.0
18/12:45am 22.8 24.0 18.2 75 2.9 N 9 17 5 9 1013.1 - 0.0
18/12:30am 22.8 23.7 18.3 76 2.8 N 11 17 6 9 1013.2 - 0.0
18/12:15am 22.8 24.0 18.2 75 2.9 N 9 17 5 9 1013.4 - 0.0
18/12:00am 22.8 23.6 18.1 75 3.0 N 11 19 6 10 1013.4 - 0.0
 
Date/Time
EDT
Temp
°C
App
Temp
°C
Dew
Point
°C
Rel
Hum
%
Delta-T
°C
Wind Press
QNH
hPa
Press
MSL
hPa
Rain since
9am
mm
Dir  Spd
km/h
Gust
km/h
Spd
kts
Gust
kts
17/11:45pm 22.7 23.4 18.0 75 2.9 NNE 11 20 6 11 1013.3 - 0.0
17/11:30pm 22.5 22.8 17.9 75 2.9 NNE 13 17 7 9 1013.4 - 0.0
17/11:15pm 22.3 23.3 17.7 75 2.9 N 9 15 5 8 1013.6 - 0.0
17/11:00pm 22.2 23.1 17.5 74 2.9 N 9 13 5 7 1013.6 - 0.0
17/10:45pm 22.3 22.8 17.4 74 3.0 N 11 20 6 11 1013.4 - 0.0
17/10:30pm 22.4 22.5 17.4 73 3.1 N 13 22 7 12 1013.4 - 0.0
17/10:15pm 22.4 22.4 17.3 73 3.2 NNE 13 20 7 11 1013.3 - 0.0
17/10:00pm 22.5 22.5 17.3 72 3.2 NNE 13 22 7 12 1013.2 - 0.0
17/09:45pm 22.5 22.2 17.3 72 3.2 NNE 15 24 8 13 1013.1 - 0.0
17/09:30pm 22.5 22.5 17.2 72 3.3 NNE 13 22 7 12 1013.0 - 0.0
17/09:15pm 22.6 22.6 17.1 71 3.4 NNE 13 19 7 10 1012.8 - 0.0
17/09:00pm 22.7 22.2 17.0 70 3.5 NNE 15 24 8 13 1012.6 - 0.0
17/08:45pm 22.8 22.0 17.0 70 3.6 NNE 17 28 9 15 1012.5 - 0.0
17/08:30pm 22.8 21.4 17.1 70 3.5 NNE 20 32 11 17 1012.3 - 0.0
17/08:15pm 22.8 21.5 17.3 71 3.4 NNE 20 30 11 16 1012.1 - 0.0
17/08:00pm 22.9 21.6 17.3 70 3.5 NNE 20 32 11 17 1011.9 - 0.0
17/07:45pm 23.0 21.2 17.0 69 3.7 NE 22 37 12 20 1011.8 - 0.0
17/07:30pm 23.2 21.9 16.7 67 4.0 NE 19 32 10 17 1011.6 - 0.0
17/07:15pm 23.5 21.5 16.5 65 4.3 NE 22 35 12 19 1011.4 - 0.0
17/07:00pm 23.9 21.5 16.4 63 4.6 NE 24 37 13 20 1011.2 - 0.0
17/06:45pm 24.2 21.3 16.2 61 4.9 NE 26 39 14 21 1011.2 - 0.0
17/06:30pm 24.4 21.9 16.1 60 5.1 NE 24 35 13 19 1011.2 - 0.0
17/06:15pm 24.8 22.2 15.8 57 5.5 NE 24 37 13 20 1011.1 - 0.0
17/06:00pm 25.1 22.5 15.8 56 5.7 NE 24 35 13 19 1011.0 - 0.0
17/05:45pm 25.3 22.4 16.0 56 5.7 NE 26 37 14 20 1011.0 - 0.0
17/05:30pm 25.6 22.3 16.1 55 5.8 NE 28 37 15 20 1010.9 - 0.0
17/08:45am 22.4 23.5 17.1 72 3.3 N 7 17 4 9 1015.3 - 0.0
17/08:30am 21.9 23.3 17.4 75 2.8 NNE 6 9 3 5 1015.3 - 0.0
17/08:15am 21.3 23.1 17.4 78 2.4 NNE 4 9 2 5 1015.2 - 0.0
17/08:00am 20.7 21.9 16.9 79 2.3 NNE 6 7 3 4 1015.1 - 0.0
17/07:45am 20.7 22.0 17.1 80 2.2 NE 6 7 3 4 1015.0 - 0.0
17/07:30am 20.3 21.4 17.2 82 1.9 ENE 7 9 4 5 1014.9 - 0.0
17/07:15am 19.7 20.7 16.9 84 1.7 ENE 7 9 4 5 1014.7 - 0.0
17/07:00am 19.2 20.0 16.4 84 1.7 E 7 11 4 6 1014.6 - 0.0
17/06:45am 19.2 20.2 16.3 83 1.7 E 6 9 3 5 1014.5 - 0.0
17/06:30am 19.3 20.7 16.5 84 1.7 E 4 6 2 3 1014.3 - 0.0
17/06:15am 19.0 20.0 16.3 84 1.6 E 6 9 3 5 1014.1 - 0.0
17/06:00am 19.0 20.0 16.3 84 1.6 E 6 7 3 4 1014.1 - 0.0
17/05:45am 19.1 20.5 16.4 84 1.6 ESE 4 6 2 3 1014.1 - 0.0
17/05:30am 18.9 19.7 16.3 85 1.6 ESE 7 11 4 6 1013.9 - 0.0
17/05:15am 18.6 19.3 16.0 85 1.6 ESE 7 11 4 6 1013.9 - 0.0
17/05:00am 18.5 19.1 15.8 84 1.6 SE 7 9 4 5 1013.7 - 0.0
17/04:45am 18.5 19.1 15.7 84 1.7 ESE 7 9 4 5 1013.7 - 0.0
17/04:30am 18.8 19.4 15.7 82 1.8 SE 7 9 4 5 1013.8 - 0.0
17/04:15am 19.2 19.8 15.9 81 2.0 SE 7 11 4 6 1013.8 - 0.0
17/04:00am 19.4 20.1 16.1 81 2.0 SE 7 11 4 6 1013.9 - 0.0
17/03:45am 19.6 20.3 16.1 80 2.1 SE 7 13 4 7 1014.1 - 0.0
17/03:30am 19.7 20.4 16.2 80 2.1 SE 7 11 4 6 1014.2 - 0.0
17/03:15am 19.8 20.5 16.1 79 2.2 SE 7 11 4 6 1014.3 - 0.0
17/03:00am 19.8 20.1 16.1 79 2.2 SE 9 13 5 7 1014.4 - 0.0
17/02:45am 19.8 20.1 16.0 79 2.3 SE 9 15 5 8 1014.4 - 0.0
17/02:30am 19.9 20.2 15.9 78 2.4 SE 9 13 5 7 1014.6 - 0.0
17/02:15am 20.0 20.3 15.9 77 2.5 SE 9 17 5 9 1014.7 - 0.0
17/02:00am 20.0 19.9 15.9 77 2.5 ESE 11 17 6 9 1014.8 - 0.0
17/01:45am 20.0 19.8 15.8 77 2.5 ESE 11 15 6 8 1015.0 - 0.0
17/01:30am 19.9 19.6 15.4 75 2.7 ESE 11 19 6 10 1015.2 - 0.0
17/01:15am 19.5 19.3 14.8 74 2.8 SE 9 15 5 8 1015.2 - 0.0
17/01:00am 19.6 19.5 15.0 75 2.7 SE 9 13 5 7 1015.3 - 0.0
17/12:45am 19.5 19.8 15.0 75 2.7 SE 7 11 4 6 1015.4 - 0.0
17/12:30am 19.4 19.7 14.9 75 2.6 SE 7 11 4 6 1015.4 - 0.0
17/12:15am 19.3 19.6 14.9 75 2.6 SE 7 11 4 6 1015.3 - 0.0
17/12:00am 19.3 19.6 14.9 75 2.6 SE 7 11 4 6 1015.2 - 0.0
 
Date/Time
EDT
Temp
°C
App
Temp
°C
Dew
Point
°C
Rel
Hum
%
Delta-T
°C
Wind Press
QNH
hPa
Press
MSL
hPa
Rain since
9am
mm
Dir  Spd
km/h
Gust
km/h
Spd
kts
Gust
kts
16/11:45pm 19.5 19.4 14.9 75 2.7 SSE 9 15 5 8 1015.1 - 0.0
16/11:30pm 19.8 20.1 15.1 74 2.8 SE 7 13 4 7 1015.2 - 0.0
16/11:15pm 19.8 19.8 15.2 75 2.7 SE 9 13 5 7 1015.2 - 0.0
16/11:00pm 19.8 19.8 15.1 74 2.8 SE 9 13 5 7 1015.1 - 0.0
16/10:45pm 20.0 20.0 15.1 73 2.9 SE 9 15 5 8 1015.0 - 0.0
16/10:30pm 20.2 20.2 15.2 73 3.0 ESE 9 13 5 7 1014.8 - 0.0
16/10:15pm 20.3 20.3 15.3 73 3.0 SE 9 15 5 8 1014.8 - 0.0
16/10:00pm 20.4 20.5 15.4 73 3.0 SE 9 19 5 10 1014.7 - 0.0
16/09:45pm 20.4 20.1 15.5 73 2.9 SE 11 19 6 10 1014.4 - 0.0
16/09:30pm 20.4 20.4 15.3 72 3.0 SE 9 19 5 10 1014.2 - 0.0
16/09:15pm 20.5 19.7 15.1 71 3.2 SE 13 19 7 10 1013.9 - 0.0
16/09:00pm 20.5 20.0 14.8 70 3.4 SE 11 17 6 9 1013.6 - 0.0
16/08:45pm 20.6 19.7 14.8 69 3.4 SE 13 19 7 10 1013.4 - 0.0
16/08:30pm 20.7 19.4 14.9 69 3.4 SE 15 24 8 13 1013.3 - 0.0
16/08:15pm 20.8 19.2 15.0 69 3.4 SE 17 24 9 13 1013.1 - 0.0
16/08:00pm 21.0 19.4 15.1 69 3.5 ESE 17 26 9 14 1012.8 - 0.0
16/07:45pm 21.1 18.5 15.0 68 3.6 ESE 22 35 12 19 1012.5 - 0.0
16/07:30pm 21.3 18.4 15.0 67 3.7 ESE 24 35 13 19 1012.1 - 0.0
16/07:15pm 21.5 17.8 15.0 66 3.9 SE 28 37 15 20 1011.7 - 0.0
16/07:00pm 21.9 19.0 15.0 65 4.1 ESE 24 35 13 19 1011.3 - 0.0
16/06:45pm 22.0 18.7 15.1 65 4.1 ESE 26 37 14 20 1011.1 - 0.0
16/06:30pm 22.2 17.7 14.9 63 4.3 ESE 32 41 17 22 1010.8 - 0.0
16/06:15pm 22.5 18.4 15.0 62 4.5 SE 30 43 16 23 1010.4 - 0.0
16/06:00pm 22.7 18.5 14.6 60 4.8 SE 30 43 16 23 1010.2 - 0.0
16/05:45pm 23.2 18.6 14.5 58 5.2 ESE 32 43 17 23 1010.2 - 0.0
16/05:30pm 23.3 19.6 15.1 60 4.9 SE 28 43 15 23 1009.9 - 0.0
16/05:15pm 23.4 19.3 14.9 59 5.1 SE 30 41 16 22 1009.9 - 0.0
16/05:00pm 23.7 19.7 15.2 59 5.1 ESE 30 39 16 21 1010.0 - 0.0
16/04:45pm 24.3 20.2 14.9 55 5.6 ESE 30 39 16 21 1009.9 - 0.0
16/04:30pm 25.0 22.4 14.8 53 6.1 ESE 22 32 12 17 1009.7 - 0.0
16/04:15pm 25.7 23.6 14.6 50 6.7 SE 19 30 10 16 1009.7 - 0.0
16/04:00pm 25.3 22.8 14.2 50 6.6 ESE 20 32 11 17 1009.8 - 0.0
16/03:45pm 25.5 23.2 14.7 51 6.5 SE 20 28 11 15 1009.8 - 0.0
16/03:30pm 26.4 24.0 14.3 47 7.3 SE 20 32 11 17 1009.7 - 0.0
16/03:15pm 26.9 24.6 12.9 42 8.2 SE 17 26 9 14 1009.7 - 0.0
16/03:00pm 27.0 24.9 12.4 40 8.5 ESE 15 26 8 14 1009.7 - 0.0
16/02:45pm 26.6 24.9 12.4 41 8.3 ESE 13 20 7 11 1010.0 - 0.0
16/02:30pm 26.3 24.6 12.6 42 8.0 SE 13 24 7 13 1010.0 - 0.0
16/02:15pm 25.1 23.4 13.7 49 6.7 SE 15 24 8 13 1010.3 - 0.0
16/02:00pm 24.1 21.4 13.5 51 6.2 SE 20 26 11 14 1010.3 - 0.0
16/01:45pm 24.1 21.8 12.9 49 6.5 SE 17 28 9 15 1010.5 - 0.0
16/01:30pm 24.3 21.7 13.1 49 6.5 SSE 19 26 10 14 1010.3 - 0.0
16/01:15pm 24.8 22.4 12.7 47 7.0 SSE 17 24 9 13 1010.4 - 0.0
16/01:00pm 25.5 23.5 12.7 45 7.5 SSE 15 24 8 13 1010.5 - 0.0
16/12:45pm 26.2 23.8 11.3 39 8.5 SE 15 22 8 12 1010.4 - 0.0
16/12:30pm 27.7 24.1 3.2 20 12.3 S 11 19 6 10 1010.6 - 0.0
16/12:15pm 27.7 21.7 -11.2 7 15.0 SSW 15 26 8 14 1010.6 - 0.0
16/12:00pm 27.6 21.9 -12.3 6 15.1 SW 13 20 7 11 1010.8 - 0.0
16/11:45am 28.0 21.2 -11.7 6 15.3 SSW 19 28 10 15 1010.8 - 0.0
16/11:30am 27.9 22.3 -10.8 7 15.1 SSW 13 22 7 12 1010.9 - 0.0
16/11:15am 27.7 21.8 -9.6 8 14.8 SSW 15 24 8 13 1011.0 - 0.0
16/11:00am 27.4 21.5 -10.6 7 14.8 SW 15 24 8 13 1011.0 - 0.0
16/10:45am 27.5 21.1 -12.0 7 15.0 SW 17 26 9 14 1010.9 - 0.0
16/10:30am 27.5 21.2 -9.7 8 14.7 SSW 17 24 9 13 1010.8 - 0.0
16/10:15am 27.3 21.9 -8.6 9 14.5 SW 13 22 7 12 1010.7 - 0.0
16/10:00am 27.0 20.9 -8.2 9 14.3 SW 17 22 9 12 1010.7 - 0.0
16/09:45am 27.0 21.8 -6.2 11 13.9 SSW 13 24 7 13 1010.6 - 0.0
16/09:30am 26.6 21.3 -3.2 14 13.2 SW 15 26 8 14 1010.5 - 0.0
16/09:15am 25.6 23.4 5.4 27 10.4 S 6 15 3 8 1010.4 - 0.0
16/09:00am 24.3 22.8 6.7 32 9.2 SSE 4 7 2 4 1010.4 - 0.0
16/08:45am 22.5 22.0 12.2 52 5.9 S 6 11 3 6 1010.3 - 0.0
16/08:30am 20.7 21.8 17.2 80 2.2 S 7 11 4 6 1010.1 - 0.0
16/08:15am 18.9 20.2 17.5 92 0.9 S 7 9 4 5 1009.9 - 0.0
16/08:00am 17.4 18.7 16.2 93 0.7 SSW 4 6 2 3 1009.7 - 0.0
16/07:45am 16.4 17.3 15.2 93 0.7 W 4 6 2 3 1009.5 - 0.0
16/07:30am 16.0 17.2 14.8 93 0.7 NW 2 4 1 2 1009.4 - 0.0
16/07:15am 16.0 17.2 14.8 93 0.7 NNW 2 4 1 2 1009.4 - 0.0
16/07:00am 16.0 16.8 14.7 92 0.7 NW 4 6 2 3 1009.3 - 0.0
16/06:45am 16.4 16.9 15.1 92 0.8 WNW 6 7 3 4 1009.1 - 0.0
16/06:30am 16.5 17.4 15.2 92 0.8 SW 4 6 2 3 1008.9 - 0.0
16/06:15am 16.5 16.9 15.2 92 0.8 SW 7 9 4 5 1008.8 - 0.0
16/06:00am 16.7 17.3 15.4 92 0.8 SSW 6 9 3 5 1008.6 - 0.0
16/05:45am 16.6 17.5 15.2 91 0.8 S 4 7 2 4 1008.5 - 0.0
16/05:30am 16.8 17.8 15.4 91 0.8 S 4 6 2 3 1008.4 - 0.0
16/05:15am 17.1 18.2 15.7 91 0.8 SSW 4 6 2 3 1008.2 - 0.0
16/05:00am 17.5 18.7 16.0 91 0.9 SW 4 6 2 3 1008.1 - 0.0
16/04:45am 18.0 19.8 16.5 91 0.9 SW 2 4 1 2 1008.0 - 0.0
16/04:30am 18.4 20.0 16.9 91 0.9 SSW 4 6 2 3 1008.0 - 0.0
16/04:15am 18.7 20.0 17.2 91 0.9 S 6 11 3 6 1008.0 - 0.0
16/04:00am 18.5 19.6 17.0 91 0.9 S 7 9 4 5 1008.1 - 0.0
16/03:45am 18.4 19.0 16.9 91 0.9 SSE 9 11 5 6 1008.4 - 0.0
16/03:30am 18.2 19.1 16.5 90 1.0 S 7 9 4 5 1008.3 - 0.0
16/03:15am 18.3 19.2 16.5 89 1.1 S 7 7 4 4 1008.3 - 0.0
16/03:00am 18.5 19.6 16.6 89 1.1 WSW 6 6 3 3 1008.3 - 0.0
16/02:45am 19.3 20.5 17.3 88 1.2 W 7 11 4 6 1008.3 - 0.0
16/02:30am 19.7 20.7 17.7 88 1.2 WNW 9 11 5 6 1008.5 - 0.0
16/02:15am 20.4 21.6 18.3 88 1.3 W 9 13 5 7 1008.7 - 0.0
16/02:00am 20.5 21.9 18.6 89 1.2 W 9 11 5 6 1009.0 - 0.0
16/01:45am 20.5 21.5 18.7 89 1.1 WNW 11 13 6 7 1009.1 - 0.0
16/01:30am 20.2 21.5 18.4 89 1.1 W 9 11 5 6 1009.2 - 0.0
16/01:15am 20.2 21.8 18.3 89 1.2 W 7 11 4 6 1009.4 - 0.0
16/01:00am 20.1 21.8 18.1 88 1.2 W 6 9 3 5 1009.6 - 0.0
16/12:45am 20.3 22.1 18.2 88 1.3 WNW 6 9 3 5 1009.7 - 0.0
16/12:30am 20.6 21.9 18.5 88 1.3 NW 9 9 5 5 1009.8 - 0.0
16/12:15am 20.9 22.3 18.7 87 1.4 NNW 9 11 5 6 1009.9 - 0.0
16/12:00am 20.9 22.4 18.8 88 1.3 NW 9 9 5 5 1010.1 - 0.0
 
Date/Time
EDT
Temp
°C
App
Temp
°C
Dew
Point
°C
Rel
Hum
%
Delta-T
°C
Wind Press
QNH
hPa
Press
MSL
hPa
Rain since
9am
mm
Dir  Spd
km/h
Gust
km/h
Spd
kts
Gust
kts
15/11:45pm 20.8 22.5 18.5 87 1.4 NNW 7 11 4 6 1010.1 - 0.0
15/11:30pm 20.9 22.2 18.5 86 1.5 N 9 11 5 6 1010.1 - 0.0
15/11:15pm 21.0 22.3 18.4 85 1.6 - 9 11 5 6 1010.3 - 0.0
15/11:00pm 21.1 22.4 18.4 84 1.7 N 9 13 5 7 1010.3 - 0.0
15/10:45pm 21.3 22.2 18.4 83 1.8 N 11 13 6 7 1010.3 - 0.0
15/10:30pm 21.4 22.2 18.2 82 2.0 N 11 15 6 8 1010.4 - 0.0
15/10:15pm 21.8 22.7 18.5 81 2.1 N 11 17 6 9 1010.4 - 0.0
15/10:00pm 22.0 23.3 18.5 80 2.2 NNE 9 13 5 7 1010.3 - 0.0
15/09:45pm 22.1 23.4 18.5 80 2.3 NNE 9 11 5 6 1010.2 - 0.0
15/09:30pm 22.3 23.2 18.5 79 2.4 NNE 11 17 6 9 1010.1 - 0.0
15/09:15pm 22.5 23.1 18.5 78 2.5 NNE 13 17 7 9 1010.0 - 0.0
15/09:00pm 22.5 23.0 18.4 77 2.6 NNE 13 19 7 10 1009.9 - 0.0
15/08:45pm 22.8 23.7 18.3 76 2.8 NNE 11 17 6 9 1009.9 - 0.0
15/08:30pm 22.8 23.9 18.1 75 3.0 NNE 9 15 5 8 1009.7 - 0.0
15/08:15pm 23.1 24.2 18.0 73 3.2 NE 9 13 5 7 1009.5 - 0.0
15/08:00pm 23.4 23.7 17.9 71 3.5 NE 13 19 7 10 1009.3 - 0.0
15/07:45pm 23.8 24.0 17.7 68 3.8 NNE 13 19 7 10 1009.3 - 0.0
15/07:30pm 24.2 24.8 17.7 67 4.1 NNE 11 17 6 9 1009.1 - 0.0
15/07:15pm 24.8 25.5 17.9 65 4.4 NE 11 19 6 10 1008.9 - 0.0
15/07:00pm 24.6 25.3 17.9 66 4.2 NE 11 19 6 10 1008.8 - 0.0
15/06:45pm 24.5 23.5 17.6 65 4.3 NE 19 28 10 15 1008.5 - 0.0
15/06:30pm 24.8 22.8 17.3 63 4.7 NE 24 32 13 17 1008.2 - 0.0
15/06:15pm 25.0 23.7 17.3 62 4.8 NNE 20 33 11 18 1008.1 - 0.0
15/06:00pm 25.4 23.7 17.3 61 5.1 NNE 22 35 12 19 1008.0 - 0.0
15/05:45pm 25.9 23.7 16.9 57 5.6 NNE 24 35 13 19 1008.0 - 0.0
15/05:30pm 26.8 25.5 17.2 55 6.0 NE 20 32 11 17 1008.1 - 0.0
15/05:15pm 26.8 24.7 17.2 55 6.0 NE 24 35 13 19 1008.3 - 0.0
15/05:00pm 26.7 24.7 17.3 56 5.9 NE 24 39 13 21 1008.5 - 0.0
15/04:45pm 26.8 24.3 17.1 55 6.1 NE 26 35 14 19 1008.7 - 0.0
15/04:30pm 27.1 25.4 17.2 54 6.2 NE 22 32 12 17 1009.0 - 0.0
15/04:15pm 27.0 24.4 16.9 54 6.3 ENE 26 35 14 19 1009.1 - 0.0
15/04:00pm 27.6 25.3 16.6 51 6.9 NE 24 37 13 20 1009.3 - 0.0
15/03:45pm 27.5 24.7 16.4 50 6.9 ENE 26 35 14 19 1009.4 - 0.0
15/03:30pm 27.5 24.6 16.1 49 7.1 ENE 26 35 14 19 1009.6 - 0.0
15/03:15pm 28.0 25.9 16.1 48 7.4 ENE 22 35 12 19 1009.9 - 0.0
15/03:00pm 27.5 24.5 15.8 48 7.2 NE 26 35 14 19 1010.1 - 0.0
15/02:45pm 27.9 25.2 15.5 46 7.6 ENE 24 32 13 17 1010.4 - 0.0
15/02:30pm 27.9 25.8 15.2 46 7.8 ENE 20 30 11 16 1010.6 - 0.0
15/02:15pm 28.5 26.2 14.7 43 8.4 ENE 20 30 11 16 1010.8 - 0.0
15/02:00pm 28.5 26.2 14.1 41 8.7 ENE 19 24 10 13 1011.0 - 0.0
15/01:45pm 28.5 26.8 13.5 39 9.0 NE 15 24 8 13 1011.3 - 0.0
15/01:30pm 28.5 26.4 11.1 34 10.0 NNE 13 28 7 15 1011.6 - 0.0
15/01:15pm 27.9 25.4 9.8 32 10.2 N 13 22 7 12 1012.0 - 0.0
15/01:00pm 28.2 26.0 10.8 33 9.9 NNW 13 24 7 13 1012.3 - 0.0
15/12:45pm 27.5 24.9 10.7 35 9.5 NNW 15 30 8 16 1012.6 - 0.0
15/12:30pm 26.7 25.1 11.6 39 8.7 N 11 22 6 12 1013.0 - 0.0
15/12:15pm 26.4 24.5 11.7 40 8.5 NW 13 22 7 12 1013.3 - 0.0

Other Formats:

Comma delimited format used in spreadsheet applications
http://www.bom.gov.au/fwo/IDN60801/IDN60801.95757.axf

JavaScript Object Notation format (JSON) in row-major order
http://www.bom.gov.au/fwo/IDN60801/IDN60801.95757.json